Habay-la-Vieille, Belgium
Current Conditions -  °F | °C
As of 6:50 AM on Sunday 21 Dec 2014 (Local Time) from ELLX Reporting Station
Broken Clouds Broken Clouds  
Wind Chill: 32°   Ceiling: 700
Heat Index: 36°   Visibility: 6mi
Dew Point: 36°   Wind: 5mph
Humidity: 100%   Direction: 220°SW
Pressure: 30.45"   Gusts: NA
Location:  49.72°N, 5.62°E
Report Text: ELLX 210550Z 22004KT 150V250 9999 BKN007 02/02 Q1031 NOSIG
Loading
Personal Weather Stations






























Interactive Weather Map New forecast layout! Learn more

10-Day Weather Forecast

Advertisements
Track Severe Weather on mobile